Meeteetse, WY (82433)

4:08 PM MST on February 09, 2016 (GMT -0700)
APRSWXNET | | Change Station
CLOSE
Current Station
Personal Weather Station
Location: Meeteetse, WY
Elevation: 5748 ft
Nearby Weather Stations
Active Advisory: Special Statement

Elev 5748 ft 44.16 °N, 108.87 °W | Updated 32 minutes ago

Clear
Clear
53 °F
Feels Like 53 °F
N
6
Wind Variable Wind from SE
Gusts 13.0 mph

Today
High -- | Low -- °F
--% Chance of Precip.
Yesterday
High -- | Low -- °F
Precip. -- in
Pressure 30.25 in
Visibility 10.0 miles
Clouds Clear
Dew Point 25 °F
Humidity 33%
Rainfall in
Snow Depth Not available.
7:23 AM 5:35 PM
New Moon, 2% visible
METAR KCOD 092255Z AUTO 04006KT 10SM CLR 12/M03 A3025 RMK AO1
Pressure 30.25 in
Visibility 10.0 miles
Clouds Clear
Dew Point 25 °F
Humidity 33%
Rainfall in
Snow Depth Not available.
7:23 AM 5:35 PM
New Moon, 2% visible
METAR KCOD 092255Z AUTO 04006KT 10SM CLR 12/M03 A3025 RMK AO1

10-Day Weather Forecast

Almanac

Astronomy

Feb. 09, 2016 Rise Set
Actual Time
Civil Twilight
Nautical Twilight
Astronomical Twilight
Moon
Length of Visible Light
Length of Day
Tomorrow will be .
, % of the Moon is Illuminated

Today's Extremes

State Highs State Lows

Community

WunderPhotos

Upload Photos

1,891,728 photos uploaded!

WunderBlog® & News

Nearby

Air Quality

  Air Quality AQ Index Pollutant
Not available.

Snow Depth

Station Depth Elevation

Earthquake Activity

City Distance Mag. Time & Date
Minimum magnitude displayed is 2.5.

Coastal Water Temperatures

Place Temperature

Stations

Nearby Weather Stations

Station Location Temp. Windchill Dew Point Humidity Wind Precip. Elev Updated Type
                   

Watches & Warnings

Special Statement
Issued: 3:04 PM MST Feb. 9, 2016 – National Weather Service

... Strong winds expected Wednesday...

West winds will likely increase to 40 to 50 mph along with gusts
to 60 mph in the Cody foothills late tonight and early Wednesday...
especially around Clark north of Cody and along the north and
south Forks of the Shoshoni rivers. Drivers of high profile and
lightweight vehicles could encounter strong crosswind along
Highway 120 as well as along portions of highways 16 and 291 that
could result in loss of control and the risk of a blowover.